Wetterdaten: Woche 30.12.13 - 05.01.14 (KW1)
Datum Zeit Temp. Aussen +5cm Feuchte Auss Luftdruck Regen Sonnenschein Regendauer UV Solar Windben
30.12.2013 00:00 2,6 C 0,9 C 95 % 1023,9 hPa 0,0 l/m 0,00 h 0,00 h 0,0 UV-I 0 W/m 1,7 km/h (1 Bft)
30.12.2013 01:00 2,0 C 0,1 C 95 % 1024,2 hPa 0,0 l/m 0,00 h 0,00 h 0,0 UV-I 0 W/m 0,5 km/h (0 Bft)
30.12.2013 02:00 1,6 C -0,1 C 95 % 1024,3 hPa 0,0 l/m 0,00 h 0,00 h 0,0 UV-I 0 W/m 1,3 km/h (1 Bft)
30.12.2013 03:00 1,6 C 0,0 C 96 % 1024,3 hPa 0,0 l/m 0,00 h 0,00 h 0,0 UV-I 0 W/m 3,2 km/h (1 Bft)
30.12.2013 04:00 1,5 C 0,0 C 96 % 1024,2 hPa 0,0 l/m 0,00 h 0,00 h 0,0 UV-I 0 W/m 3,8 km/h (1 Bft)
30.12.2013 05:00 1,2 C -0,0 C 96 % 1023,8 hPa 0,2 l/m 0,00 h 0,00 h 0,0 UV-I 0 W/m 9,5 km/h (2 Bft)
30.12.2013 06:00 0,9 C -0,6 C 96 % 1023,5 hPa 0,0 l/m 0,00 h 0,00 h 0,0 UV-I 0 W/m 9,9 km/h (2 Bft)
30.12.2013 07:00 0,7 C -0,6 C 96 % 1023,1 hPa 0,0 l/m 0,00 h 0,00 h 0,0 UV-I 0 W/m 10,1 km/h (2 Bft)
30.12.2013 08:00 0,7 C -0,6 C 96 % 1023,1 hPa 0,0 l/m 0,00 h 0,00 h 0,0 UV-I 8 W/m 6,2 km/h (2 Bft)
30.12.2013 09:00 1,1 C 0,2 C 96 % 1023,1 hPa 0,0 l/m 0,23 h 0,00 h 0,0 UV-I 42 W/m 9,3 km/h (2 Bft)
30.12.2013 10:00 2,3 C 1,5 C 96 % 1023,0 hPa 0,0 l/m 1,00 h 0,00 h 0,0 UV-I 124 W/m 13,5 km/h (3 Bft)
30.12.2013 11:00 5,1 C 3,6 C 87 % 1022,5 hPa 0,0 l/m 1,00 h 0,00 h 0,0 UV-I 176 W/m 19,5 km/h (3 Bft)
30.12.2013 12:00 6,3 C 4,9 C 81 % 1022,0 hPa 0,0 l/m 1,00 h 0,00 h 0,0 UV-I 202 W/m 21,7 km/h (4 Bft)
30.12.2013 13:00 6,2 C 4,8 C 80 % 1021,1 hPa 0,0 l/m 0,33 h 0,00 h 0,0 UV-I 139 W/m 25,0 km/h (4 Bft)
30.12.2013 14:00 6,3 C 5,2 C 79 % 1020,4 hPa 0,0 l/m 0,57 h 0,00 h 0,0 UV-I 137 W/m 21,0 km/h (4 Bft)
30.12.2013 15:00 5,7 C 4,3 C 80 % 1019,7 hPa 0,0 l/m 0,00 h 0,00 h 0,0 UV-I 35 W/m 23,7 km/h (4 Bft)
30.12.2013 16:00 5,7 C 3,9 C 79 % 1019,1 hPa 0,0 l/m 0,00 h 0,00 h 0,0 UV-I 10 W/m 25,3 km/h (4 Bft)
30.12.2013 17:00 5,8 C 4,3 C 78 % 1018,7 hPa 0,0 l/m 0,00 h 0,00 h 0,0 UV-I 0 W/m 28,8 km/h (5 Bft)
30.12.2013 18:00 5,8 C 4,3 C 78 % 1018,8 hPa 0,0 l/m 0,00 h 0,00 h 0,0 UV-I 0 W/m 24,4 km/h (4 Bft)
30.12.2013 19:00 5,2 C 3,2 C 83 % 1019,0 hPa 0,4 l/m 0,00 h 0,77 h 0,0 UV-I 0 W/m 21,4 km/h (4 Bft)
30.12.2013 20:00 4,7 C 2,7 C 86 % 1018,8 hPa 0,0 l/m 0,00 h 0,33 h 0,0 UV-I 0 W/m 20,7 km/h (4 Bft)
30.12.2013 21:00 4,9 C 3,1 C 85 % 1019,0 hPa 0,0 l/m 0,00 h 0,00 h 0,0 UV-I 0 W/m 14,1 km/h (3 Bft)
30.12.2013 22:00 5,1 C 3,3 C 84 % 1019,3 hPa 0,0 l/m 0,00 h 0,00 h 0,0 UV-I 0 W/m 11,8 km/h (2 Bft)
30.12.2013 23:00 5,2 C 3,3 C 84 % 1019,3 hPa 0,0 l/m 0,00 h 0,00 h 0,0 UV-I 0 W/m 8,7 km/h (2 Bft)
31.12.2013 00:00 5,2 C 3,3 C 85 % 1018,9 hPa 0,0 l/m 0,00 h 0,00 h 0,0 UV-I 0 W/m 9,4 km/h (2 Bft)
31.12.2013 01:00 5,3 C 3,6 C 86 % 1018,8 hPa 0,0 l/m 0,00 h 0,00 h 0,0 UV-I 0 W/m 10,6 km/h (2 Bft)
31.12.2013 02:00 5,4 C 3,9 C 86 % 1018,8 hPa 0,0 l/m 0,00 h 0,00 h 0,0 UV-I 0 W/m 5,9 km/h (2 Bft)
31.12.2013 03:00 5,1 C 3,7 C 87 % 1018,8 hPa 0,0 l/m 0,00 h 0,00 h 0,0 UV-I 0 W/m 4,8 km/h (1 Bft)
31.12.2013 04:00 4,8 C 3,3 C 89 % 1018,1 hPa 0,0 l/m 0,00 h 0,23 h 0,0 UV-I 0 W/m 8,5 km/h (2 Bft)
31.12.2013 05:00 4,3 C 2,2 C 91 % 1017,5 hPa 0,2 l/m 0,00 h 0,30 h 0,0 UV-I 0 W/m 6,6 km/h (2 Bft)
31.12.2013 06:00 3,4 C 1,7 C 93 % 1017,0 hPa 0,0 l/m 0,00 h 0,03 h 0,0 UV-I 0 W/m 9,2 km/h (2 Bft)
31.12.2013 07:00 3,4 C 2,1 C 94 % 1016,7 hPa 0,0 l/m 0,00 h 0,27 h 0,0 UV-I 0 W/m 19,5 km/h (3 Bft)
31.12.2013 08:00 3,7 C 2,2 C 93 % 1016,3 hPa 0,0 l/m 0,00 h 0,00 h 0,0 UV-I 7 W/m 18,3 km/h (3 Bft)
31.12.2013 09:00 3,9 C 2,4 C 93 % 1015,9 hPa 0,0 l/m 0,00 h 0,00 h 0,0 UV-I 27 W/m 22,1 km/h (4 Bft)
31.12.2013 10:00 4,5 C 3,3 C 91 % 1015,6 hPa 0,0 l/m 0,60 h 0,00 h 0,0 UV-I 116 W/m 23,3 km/h (4 Bft)
31.12.2013 11:00 5,9 C 4,6 C 87 % 1014,8 hPa 0,0 l/m 0,83 h 0,00 h 0,0 UV-I 187 W/m 24,4 km/h (4 Bft)
31.12.2013 12:00 6,4 C 5,4 C 84 % 1013,7 hPa 0,0 l/m 0,10 h 0,00 h 0,0 UV-I 129 W/m 20,1 km/h (4 Bft)
31.12.2013 13:00 7,2 C 6,0 C 80 % 1012,9 hPa 0,0 l/m 0,90 h 0,00 h 0,0 UV-I 174 W/m 21,6 km/h (4 Bft)
31.12.2013 14:00 7,4 C 6,1 C 79 % 1012,1 hPa 0,0 l/m 0,50 h 0,00 h 0,0 UV-I 113 W/m 15,4 km/h (3 Bft)
31.12.2013 15:00 7,4 C 6,0 C 77 % 1011,3 hPa 0,0 l/m 0,00 h 0,00 h 0,0 UV-I 45 W/m 18,2 km/h (3 Bft)
31.12.2013 16:00 7,0 C 5,3 C 75 % 1011,0 hPa 0,0 l/m 0,00 h 0,00 h 0,0 UV-I 11 W/m 17,3 km/h (3 Bft)
31.12.2013 17:00 6,8 C 5,1 C 73 % 1010,7 hPa 0,0 l/m 0,00 h 0,00 h 0,0 UV-I 0 W/m 21,9 km/h (4 Bft)
31.12.2013 18:00 6,5 C 4,8 C 74 % 1010,1 hPa 0,0 l/m 0,00 h 0,00 h 0,0 UV-I 0 W/m 24,2 km/h (4 Bft)
31.12.2013 19:00 6,1 C 4,4 C 74 % 1009,4 hPa 0,0 l/m 0,00 h 0,00 h 0,0 UV-I 0 W/m 24,5 km/h (4 Bft)
31.12.2013 20:00 5,8 C 4,2 C 75 % 1009,3 hPa 0,0 l/m 0,00 h 0,00 h 0,0 UV-I 0 W/m 23,8 km/h (4 Bft)
31.12.2013 21:00 5,7 C 4,3 C 76 % 1009,0 hPa 0,0 l/m 0,00 h 0,00 h 0,0 UV-I 0 W/m 23,6 km/h (4 Bft)
31.12.2013 22:00 5,6 C 4,1 C 77 % 1009,0 hPa 0,0 l/m 0,00 h 0,10 h 0,0 UV-I 0 W/m 17,9 km/h (3 Bft)
31.12.2013 23:00 5,8 C 4,4 C 76 % 1008,8 hPa 0,0 l/m 0,00 h 0,00 h 0,0 UV-I 0 W/m 14,4 km/h (3 Bft)
01.01.2014 00:00 6,1 C 4,1 C 76 % 1008,9 hPa 0,2 l/m 0,00 h 0,33 h 0,0 UV-I 0 W/m 6,1 km/h (2 Bft)
01.01.2014 01:00 6,0 C 3,7 C 87 % 1009,0 hPa 0,4 l/m 0,00 h 1,00 h 0,0 UV-I 0 W/m 10,5 km/h (2 Bft)
01.01.2014 02:00 6,1 C 4,0 C 90 % 1009,2 hPa 0,0 l/m 0,00 h 0,17 h 0,0 UV-I 0 W/m 10,8 km/h (2 Bft)
01.01.2014 03:00 6,3 C 4,4 C 91 % 1009,4 hPa 0,0 l/m 0,00 h 0,00 h 0,0 UV-I 0 W/m 12,3 km/h (3 Bft)
01.01.2014 04:00 6,5 C 4,5 C 90 % 1009,5 hPa 0,0 l/m 0,00 h 0,00 h 0,0 UV-I 0 W/m 13,0 km/h (3 Bft)
01.01.2014 05:00 6,4 C 4,3 C 90 % 1009,7 hPa 0,0 l/m 0,00 h 0,00 h 0,0 UV-I 0 W/m 7,4 km/h (2 Bft)
01.01.2014 06:00 6,3 C 4,1 C 89 % 1009,6 hPa 0,0 l/m 0,00 h 0,00 h 0,0 UV-I 0 W/m 7,5 km/h (2 Bft)
01.01.2014 07:00 5,9 C 3,5 C 89 % 1009,9 hPa 0,0 l/m 0,00 h 0,00 h 0,0 UV-I 0 W/m 7,8 km/h (2 Bft)
01.01.2014 08:00 5,0 C 2,4 C 89 % 1009,9 hPa 0,0 l/m 0,00 h 0,00 h 0,0 UV-I 8 W/m 5,2 km/h (1 Bft)
01.01.2014 09:00 4,4 C 2,5 C 90 % 1010,0 hPa 0,0 l/m 0,00 h 0,00 h 0,0 UV-I 32 W/m 9,9 km/h (2 Bft)
01.01.2014 10:00 5,3 C 3,8 C 88 % 1009,9 hPa 0,0 l/m 0,63 h 0,00 h 0,0 UV-I 115 W/m 13,9 km/h (3 Bft)
01.01.2014 11:00 7,6 C 5,6 C 79 % 1009,4 hPa 0,0 l/m 1,00 h 0,00 h 0,0 UV-I 186 W/m 15,8 km/h (3 Bft)
01.01.2014 12:00 8,4 C 6,5 C 76 % 1008,6 hPa 0,0 l/m 0,90 h 0,00 h 0,0 UV-I 194 W/m 17,5 km/h (3 Bft)
01.01.2014 13:00 9,0 C 7,2 C 74 % 1007,8 hPa 0,0 l/m 0,93 h 0,00 h 0,0 UV-I 188 W/m 19,3 km/h (3 Bft)
01.01.2014 14:00 8,6 C 6,7 C 74 % 1006,9 hPa 0,0 l/m 0,30 h 0,00 h 0,0 UV-I 86 W/m 18,3 km/h (3 Bft)
01.01.2014 15:00 7,7 C 6,0 C 78 % 1006,1 hPa 0,0 l/m 0,00 h 0,00 h 0,0 UV-I 25 W/m 17,8 km/h (3 Bft)
01.01.2014 16:00 7,5 C 6,1 C 81 % 1005,2 hPa 0,0 l/m 0,00 h 0,00 h 0,0 UV-I 10 W/m 23,2 km/h (4 Bft)
01.01.2014 17:00 7,8 C 6,3 C 83 % 1004,4 hPa 0,0 l/m 0,00 h 0,00 h 0,0 UV-I 0 W/m 25,2 km/h (4 Bft)
01.01.2014 18:00 8,2 C 6,0 C 85 % 1003,6 hPa 0,0 l/m 0,00 h 0,87 h 0,0 UV-I 0 W/m 25,9 km/h (4 Bft)
01.01.2014 19:00 7,0 C 5,0 C 91 % 1002,9 hPa 0,4 l/m 0,00 h 1,00 h 0,0 UV-I 0 W/m 25,9 km/h (4 Bft)
01.01.2014 20:00 7,1 C 5,2 C 92 % 1002,0 hPa 0,0 l/m 0,00 h 0,57 h 0,0 UV-I 0 W/m 28,7 km/h (4 Bft)
01.01.2014 21:00 7,7 C 5,7 C 89 % 1001,1 hPa 0,0 l/m 0,00 h 0,10 h 0,0 UV-I 0 W/m 26,4 km/h (4 Bft)
01.01.2014 22:00 8,0 C 6,1 C 88 % 1000,1 hPa 0,0 l/m 0,00 h 0,37 h 0,0 UV-I 0 W/m 22,9 km/h (4 Bft)
01.01.2014 23:00 8,5 C 6,5 C 87 % 999,1 hPa 0,0 l/m 0,00 h 0,27 h 0,0 UV-I 0 W/m 23,0 km/h (4 Bft)
02.01.2014 00:00 9,4 C 7,1 C 85 % 998,4 hPa 0,2 l/m 0,00 h 0,50 h 0,0 UV-I 0 W/m 23,0 km/h (4 Bft)
02.01.2014 01:00 9,1 C 6,7 C 88 % 997,6 hPa 0,2 l/m 0,00 h 0,80 h 0,0 UV-I 0 W/m 16,7 km/h (3 Bft)
02.01.2014 02:00 9,3 C 6,7 C 87 % 997,2 hPa 0,0 l/m 0,00 h 0,87 h 0,0 UV-I 0 W/m 19,8 km/h (4 Bft)
02.01.2014 03:00 9,1 C 6,7 C 89 % 996,8 hPa 0,2 l/m 0,00 h 0,67 h 0,0 UV-I 0 W/m 19,8 km/h (4 Bft)
02.01.2014 04:00 9,0 C 6,7 C 89 % 996,2 hPa 0,0 l/m 0,00 h 0,17 h 0,0 UV-I 0 W/m 19,8 km/h (4 Bft)
02.01.2014 05:00 9,3 C 7,1 C 88 % 995,9 hPa 0,2 l/m 0,00 h 0,20 h 0,0 UV-I 0 W/m 20,0 km/h (4 Bft)
02.01.2014 06:00 9,4 C 7,2 C 89 % 995,9 hPa 0,0 l/m 0,00 h 0,13 h 0,0 UV-I 0 W/m 14,7 km/h (3 Bft)
02.01.2014 07:00 9,6 C 7,7 C 88 % 996,0 hPa 0,0 l/m 0,00 h 0,00 h 0,0 UV-I 0 W/m 19,6 km/h (3 Bft)
02.01.2014 08:00 9,7 C 7,7 C 87 % 996,2 hPa 0,0 l/m 0,00 h 0,00 h 0,0 UV-I 0 W/m 13,5 km/h (3 Bft)
02.01.2014 09:00 9,5 C 7,2 C 88 % 996,7 hPa 0,0 l/m 0,00 h 0,30 h 0,0 UV-I 9 W/m 12,2 km/h (2 Bft)
02.01.2014 10:00 9,5 C 7,2 C 90 % 996,6 hPa 0,4 l/m 0,00 h 0,43 h 0,0 UV-I 13 W/m 15,5 km/h (3 Bft)
02.01.2014 11:00 9,4 C 7,2 C 91 % 997,2 hPa 1,2 l/m 0,00 h 0,67 h 0,0 UV-I 31 W/m 18,6 km/h (3 Bft)
02.01.2014 12:00 9,6 C 8,0 C 93 % 998,1 hPa 0,2 l/m 0,23 h 0,37 h 0,0 UV-I 111 W/m 19,5 km/h (3 Bft)
02.01.2014 13:00 9,9 C 8,3 C 88 % 999,2 hPa 0,0 l/m 0,00 h 0,00 h 0,0 UV-I 61 W/m 18,0 km/h (3 Bft)
02.01.2014 14:00 10,0 C 8,1 C 84 % 1000,4 hPa 0,0 l/m 0,00 h 0,00 h 0,0 UV-I 58 W/m 12,0 km/h (2 Bft)
02.01.2014 15:00 9,8 C 7,9 C 82 % 1001,7 hPa 0,0 l/m 0,03 h 0,00 h 0,0 UV-I 36 W/m 10,2 km/h (2 Bft)
02.01.2014 16:00 9,1 C 6,5 C 86 % 1002,8 hPa 1,0 l/m 0,00 h 0,50 h 0,0 UV-I 6 W/m 5,6 km/h (1 Bft)
02.01.2014 17:00 7,9 C 5,5 C 90 % 1003,6 hPa 0,0 l/m 0,00 h 0,00 h 0,0 UV-I 0 W/m 4,3 km/h (1 Bft)
02.01.2014 18:00 7,7 C 5,6 C 91 % 1004,1 hPa 0,0 l/m 0,00 h 0,00 h 0,0 UV-I 0 W/m 9,9 km/h (2 Bft)
02.01.2014 19:00 7,8 C 5,4 C 90 % 1004,8 hPa 0,0 l/m 0,00 h 0,00 h 0,0 UV-I 0 W/m 12,1 km/h (2 Bft)
02.01.2014 20:00 7,5 C 5,0 C 89 % 1005,2 hPa 0,0 l/m 0,00 h 0,00 h 0,0 UV-I 0 W/m 9,6 km/h (2 Bft)
02.01.2014 21:00 7,2 C 4,4 C 89 % 1005,5 hPa 0,0 l/m 0,00 h 0,00 h 0,0 UV-I 0 W/m 5,3 km/h (1 Bft)
02.01.2014 22:00 6,2 C 3,4 C 89 % 1005,6 hPa 0,0 l/m 0,00 h 0,00 h 0,0 UV-I 0 W/m 4,4 km/h (1 Bft)
02.01.2014 23:00 5,3 C 3,3 C 92 % 1005,6 hPa 0,0 l/m 0,00 h 0,00 h 0,0 UV-I 0 W/m 6,3 km/h (2 Bft)
03.01.2014 00:00 4,9 C 2,9 C 92 % 1005,4 hPa 0,0 l/m 0,00 h 0,00 h 0,0 UV-I 0 W/m 8,1 km/h (2 Bft)
03.01.2014 01:00 4,5 C 2,8 C 93 % 1005,0 hPa 0,0 l/m 0,00 h 0,00 h 0,0 UV-I 0 W/m 13,4 km/h (3 Bft)
03.01.2014 02:00 4,6 C 2,8 C 94 % 1004,8 hPa 0,0 l/m 0,00 h 0,00 h 0,0 UV-I 0 W/m 14,6 km/h (3 Bft)
03.01.2014 03:00 4,7 C 2,9 C 94 % 1004,9 hPa 0,0 l/m 0,00 h 0,00 h 0,0 UV-I 0 W/m 10,2 km/h (2 Bft)
03.01.2014 04:00 5,2 C 3,6 C 95 % 1004,3 hPa 0,0 l/m 0,00 h 0,00 h 0,0 UV-I 0 W/m 14,5 km/h (3 Bft)
03.01.2014 05:00 6,0 C 4,3 C 95 % 1003,3 hPa 0,0 l/m 0,00 h 0,00 h 0,0 UV-I 0 W/m 16,2 km/h (3 Bft)
03.01.2014 06:00 6,8 C 5,2 C 93 % 1002,7 hPa 0,0 l/m 0,00 h 0,00 h 0,0 UV-I 0 W/m 22,0 km/h (4 Bft)
03.01.2014 07:00 7,4 C 5,6 C 93 % 1001,7 hPa 0,0 l/m 0,00 h 0,07 h 0,0 UV-I 0 W/m 24,2 km/h (4 Bft)
03.01.2014 08:00 7,6 C 5,7 C 92 % 1001,4 hPa 0,0 l/m 0,00 h 0,30 h 0,0 UV-I 5 W/m 20,2 km/h (4 Bft)
03.01.2014 09:00 7,7 C 6,1 C 94 % 1002,2 hPa 0,6 l/m 0,00 h 0,73 h 0,0 UV-I 11 W/m 13,3 km/h (3 Bft)
03.01.2014 10:00 8,5 C 7,2 C 96 % 1002,6 hPa 0,0 l/m 0,00 h 0,00 h 0,0 UV-I 27 W/m 18,4 km/h (3 Bft)
03.01.2014 11:00 10,2 C 8,0 C 90 % 1002,9 hPa 0,0 l/m 0,20 h 0,00 h 0,0 UV-I 92 W/m 19,4 km/h (3 Bft)
03.01.2014 12:00 11,8 C 8,9 C 82 % 1002,6 hPa 0,0 l/m 0,77 h 0,00 h 0,0 UV-I 192 W/m 24,0 km/h (4 Bft)
03.01.2014 13:00 12,8 C 10,7 C 76 % 1002,5 hPa 0,0 l/m 0,57 h 0,00 h 0,0 UV-I 166 W/m 21,7 km/h (4 Bft)
03.01.2014 14:00 12,7 C 10,7 C 76 % 1002,2 hPa 0,0 l/m 0,00 h 0,00 h 0,0 UV-I 52 W/m 21,3 km/h (4 Bft)
03.01.2014 15:00 12,5 C 10,6 C 78 % 1002,6 hPa 0,0 l/m 0,23 h 0,00 h 0,0 UV-I 41 W/m 19,2 km/h (3 Bft)
03.01.2014 16:00 12,0 C 9,8 C 79 % 1002,6 hPa 0,0 l/m 0,43 h 0,00 h 0,0 UV-I 20 W/m 16,3 km/h (3 Bft)
03.01.2014 17:00 11,6 C 9,3 C 80 % 1002,1 hPa 0,0 l/m 0,00 h 0,00 h 0,0 UV-I 0 W/m 15,7 km/h (3 Bft)
03.01.2014 18:00 10,4 C 7,6 C 80 % 1002,5 hPa 4,4 l/m 0,00 h 0,33 h 0,0 UV-I 0 W/m 22,8 km/h (4 Bft)
03.01.2014 19:00 6,3 C 4,3 C 91 % 1004,3 hPa 1,4 l/m 0,00 h 0,30 h 0,0 UV-I 0 W/m 15,4 km/h (3 Bft)
03.01.2014 20:00 6,4 C 4,6 C 94 % 1004,9 hPa 0,0 l/m 0,00 h 0,00 h 0,0 UV-I 0 W/m 10,6 km/h (2 Bft)
03.01.2014 21:00 7,4 C 5,6 C 93 % 1005,3 hPa 0,0 l/m 0,00 h 0,00 h 0,0 UV-I 0 W/m 20,2 km/h (4 Bft)
03.01.2014 22:00 8,4 C 6,1 C 82 % 1006,4 hPa 0,0 l/m 0,00 h 0,60 h 0,0 UV-I 0 W/m 28,7 km/h (4 Bft)
03.01.2014 23:00 7,5 C 5,6 C 85 % 1006,8 hPa 0,0 l/m 0,00 h 0,00 h 0,0 UV-I 0 W/m 15,9 km/h (3 Bft)
04.01.2014 00:00 7,6 C 5,9 C 82 % 1007,6 hPa 0,0 l/m 0,00 h 0,00 h 0,0 UV-I 0 W/m 20,4 km/h (4 Bft)
04.01.2014 01:00 8,0 C 5,8 C 76 % 1008,0 hPa 0,0 l/m 0,00 h 0,00 h 0,0 UV-I 0 W/m 16,2 km/h (3 Bft)
04.01.2014 02:00 7,6 C 5,6 C 77 % 1008,2 hPa 0,0 l/m 0,00 h 0,00 h 0,0 UV-I 0 W/m 18,1 km/h (3 Bft)
04.01.2014 03:00 7,3 C 5,0 C 77 % 1008,5 hPa 0,0 l/m 0,00 h 0,00 h 0,0 UV-I 0 W/m 11,4 km/h (2 Bft)
04.01.2014 04:00 6,2 C 3,6 C 80 % 1008,4 hPa 0,0 l/m 0,00 h 0,00 h 0,0 UV-I 0 W/m 7,8 km/h (2 Bft)
04.01.2014 05:00 5,0 C 2,6 C 84 % 1007,9 hPa 0,0 l/m 0,00 h 0,00 h 0,0 UV-I 0 W/m 4,8 km/h (1 Bft)
04.01.2014 06:00 4,2 C 2,4 C 89 % 1007,5 hPa 0,0 l/m 0,00 h 0,00 h 0,0 UV-I 0 W/m 5,7 km/h (1 Bft)
04.01.2014 07:00 4,5 C 2,8 C 91 % 1006,8 hPa 0,0 l/m 0,00 h 0,00 h 0,0 UV-I 0 W/m 11,4 km/h (2 Bft)
04.01.2014 08:00 4,5 C 2,9 C 91 % 1006,3 hPa 0,0 l/m 0,00 h 0,00 h 0,0 UV-I 7 W/m 12,9 km/h (3 Bft)
04.01.2014 09:00 5,0 C 3,6 C 92 % 1005,5 hPa 0,0 l/m 0,00 h 0,00 h 0,0 UV-I 31 W/m 15,1 km/h (3 Bft)
04.01.2014 10:00 5,7 C 4,8 C 92 % 1004,1 hPa 0,0 l/m 0,00 h 0,00 h 0,0 UV-I 59 W/m 16,1 km/h (3 Bft)
04.01.2014 11:00 6,7 C 5,8 C 91 % 1003,2 hPa 0,0 l/m 0,00 h 0,00 h 0,0 UV-I 77 W/m 19,5 km/h (3 Bft)
04.01.2014 12:00 7,4 C 6,5 C 89 % 1002,0 hPa 0,0 l/m 0,00 h 0,00 h 0,0 UV-I 87 W/m 21,0 km/h (4 Bft)
04.01.2014 13:00 7,8 C 6,7 C 87 % 1000,5 hPa 0,0 l/m 0,00 h 0,00 h 0,0 UV-I 78 W/m 21,4 km/h (4 Bft)
04.01.2014 14:00 8,3 C 7,2 C 86 % 999,3 hPa 0,0 l/m 0,00 h 0,00 h 0,0 UV-I 54 W/m 20,5 km/h (4 Bft)
04.01.2014 15:00 9,0 C 7,1 C 85 % 998,1 hPa 0,0 l/m 0,00 h 0,43 h 0,0 UV-I 22 W/m 20,1 km/h (4 Bft)
04.01.2014 16:00 8,6 C 6,1 C 87 % 997,4 hPa 0,0 l/m 0,00 h 0,37 h 0,0 UV-I 7 W/m 20,2 km/h (4 Bft)
04.01.2014 17:00 8,1 C 6,1 C 88 % 996,9 hPa 0,0 l/m 0,00 h 0,00 h 0,0 UV-I 0 W/m 18,7 km/h (3 Bft)
04.01.2014 18:00 7,9 C 6,1 C 90 % 996,4 hPa 0,0 l/m 0,00 h 0,10 h 0,0 UV-I 0 W/m 17,3 km/h (3 Bft)
04.01.2014 19:00 7,4 C 5,6 C 92 % 995,7 hPa 0,0 l/m 0,00 h 0,00 h 0,0 UV-I 0 W/m 16,0 km/h (3 Bft)
04.01.2014 20:00 6,9 C 5,0 C 93 % 995,4 hPa 0,0 l/m 0,00 h 0,00 h 0,0 UV-I 0 W/m 14,8 km/h (3 Bft)
04.01.2014 21:00 6,4 C 4,5 C 94 % 995,2 hPa 0,0 l/m 0,00 h 0,00 h 0,0 UV-I 0 W/m 12,7 km/h (3 Bft)
04.01.2014 22:00 6,1 C 4,3 C 94 % 995,2 hPa 0,0 l/m 0,00 h 0,00 h 0,0 UV-I 0 W/m 4,6 km/h (1 Bft)
04.01.2014 23:00 5,8 C 4,0 C 95 % 995,6 hPa 0,0 l/m 0,00 h 0,00 h 0,0 UV-I 0 W/m 6,9 km/h (2 Bft)
05.01.2014 00:00 5,6 C 4,2 C 95 % 996,2 hPa 0,0 l/m 0,00 h 0,00 h 0,0 UV-I 0 W/m 3,4 km/h (1 Bft)
05.01.2014 01:00 6,2 C 5,1 C 96 % 996,7 hPa 0,2 l/m 0,00 h 0,20 h 0,0 UV-I 0 W/m 2,3 km/h (1 Bft)
05.01.2014 02:00 7,4 C 5,9 C 96 % 997,5 hPa 0,2 l/m 0,00 h 0,90 h 0,0 UV-I 0 W/m 5,6 km/h (1 Bft)
05.01.2014 03:00 7,5 C 5,6 C 95 % 998,2 hPa 0,2 l/m 0,00 h 0,73 h 0,0 UV-I 0 W/m 4,7 km/h (1 Bft)
05.01.2014 04:00 7,3 C 5,6 C 95 % 999,3 hPa 0,2 l/m 0,00 h 0,73 h 0,0 UV-I 0 W/m 10,1 km/h (2 Bft)
05.01.2014 05:00 6,8 C 5,1 C 95 % 1000,6 hPa 0,0 l/m 0,00 h 0,00 h 0,0 UV-I 0 W/m 11,8 km/h (2 Bft)
05.01.2014 06:00 6,1 C 4,2 C 94 % 1002,1 hPa 0,0 l/m 0,00 h 0,00 h 0,0 UV-I 0 W/m 7,1 km/h (2 Bft)
05.01.2014 07:00 5,5 C 3,6 C 93 % 1003,5 hPa 0,0 l/m 0,00 h 0,00 h 0,0 UV-I 0 W/m 7,5 km/h (2 Bft)
05.01.2014 08:00 4,9 C 3,1 C 93 % 1004,6 hPa 0,0 l/m 0,00 h 0,00 h 0,0 UV-I 6 W/m 6,5 km/h (2 Bft)
05.01.2014 09:00 4,4 C 2,8 C 94 % 1005,6 hPa 0,0 l/m 0,00 h 0,00 h 0,0 UV-I 29 W/m 5,3 km/h (1 Bft)
05.01.2014 10:00 4,8 C 3,6 C 94 % 1006,5 hPa 0,0 l/m 0,87 h 0,00 h 0,0 UV-I 121 W/m 5,7 km/h (1 Bft)
05.01.2014 11:00 6,3 C 4,5 C 89 % 1007,1 hPa 0,0 l/m 1,00 h 0,00 h 0,0 UV-I 191 W/m 12,3 km/h (3 Bft)
05.01.2014 12:00 7,1 C 5,4 C 85 % 1007,3 hPa 0,0 l/m 1,00 h 0,00 h 0,0 UV-I 221 W/m 13,3 km/h (3 Bft)
05.01.2014 13:00 7,7 C 6,1 C 81 % 1007,9 hPa 0,0 l/m 1,00 h 0,00 h 0,0 UV-I 222 W/m 13,8 km/h (3 Bft)
05.01.2014 14:00 7,7 C 6,3 C 79 % 1008,6 hPa 0,0 l/m 0,83 h 0,00 h 0,0 UV-I 158 W/m 13,5 km/h (3 Bft)
05.01.2014 15:00 7,1 C 5,7 C 81 % 1009,4 hPa 0,0 l/m 0,10 h 0,00 h 0,0 UV-I 52 W/m 6,2 km/h (2 Bft)
05.01.2014 16:00 6,8 C 5,4 C 80 % 1010,3 hPa 0,0 l/m 0,00 h 0,00 h 0,0 UV-I 10 W/m 9,3 km/h (2 Bft)
05.01.2014 17:00 6,2 C 4,5 C 81 % 1010,2 hPa 0,0 l/m 0,00 h 0,00 h 0,0 UV-I 0 W/m 14,2 km/h (3 Bft)
05.01.2014 18:00 5,6 C 3,8 C 81 % 1009,4 hPa 0,0 l/m 0,00 h 0,00 h 0,0 UV-I 0 W/m 12,3 km/h (3 Bft)
05.01.2014 19:00 5,1 C 3,3 C 83 % 1009,0 hPa 0,0 l/m 0,00 h 0,00 h 0,0 UV-I 0 W/m 10,5 km/h (2 Bft)
05.01.2014 20:00 4,7 C 2,9 C 84 % 1008,9 hPa 0,0 l/m 0,00 h 0,00 h 0,0 UV-I 0 W/m 9,1 km/h (2 Bft)
05.01.2014 21:00 4,2 C 2,4 C 86 % 1008,9 hPa 0,0 l/m 0,00 h 0,00 h 0,0 UV-I 0 W/m 8,8 km/h (2 Bft)
05.01.2014 22:00 3,9 C 2,2 C 88 % 1008,7 hPa 0,0 l/m 0,00 h 0,00 h 0,0 UV-I 0 W/m 9,9 km/h (2 Bft)
05.01.2014 23:00 3,8 C 2,2 C 88 % 1007,6 hPa 0,0 l/m 0,00 h 0,00 h 0,0 UV-I 0 W/m 14,3 km/h (3 Bft)
Min-Datum _ 30.12.13 30.12.13 01.01.14 04.01.14 - - - - - 30.12.13
_ Min-Zeit 08:02 02:00 13:54 21:54 - - - - - 00:00
Minimum _ 0,5 C -0,6 C 72 % 995,0 hPa - - - - - 0,0 km/h (0 Bft)
Max-Datum _ 03.01.14 03.01.14 30.12.13 30.12.13 03.01.14 30.12.13 30.12.13 30.12.13 02.01.14 03.01.14
_ Max-Zeit 13:24 13:24 05:54 02:14 18:44 09:44 19:10 00:00 12:18 18:42
Maximum _ 12,9 C 11,1 C 97 % 1024,4 hPa 4,4 l/m 0,03 h 0,03 h 0,0 UV-I 295 W/m 59,2 km/h
SO (7 Bft)
Durchschnitt _ 6,6 C 4,8 C 87 % 1007,6 hPa #12,6 l/m #18:06 h #18:06 h 0,0 UV-I 79 W/m 14,7 km/h (3 Bft)
© 2014 W. Hausmann